NATURA VA

 METAR AND TAF INFORMATION
METAR FOR GCGM
ADDS - METARS form results

(1605 UTC 26 March 2019)
Data provider http://aviationweather.gov/metar/data/
 
METAR text: GCGM 261600Z VRB04KT 9999 FEW038 20/10 Q1009 RMK R09/VRB03KT ARP/17003KT 100V250
Conditions at: GCGM (LA GOMERA ARPT , ES) observed 1600 UTC 26 March 2019
Temperature: 20.0°C (68°F)
Dewpoint: 10.0°C (50°F) [RH = 53%]
Pressure (altimeter): 29.79 inches Hg (1009.0 mb)
Winds: variable direction winds at 5 MPH (4 knots; 2.1 m/s)
Visibility: 6 or more miles (10+ km)
Ceiling: at least 12,000 feet AGL
Clouds: few clouds at 3800 feet AGL
Weather: no significant weather observed at this time

METAR text: GCGM 261530Z 22005KT 140V280 9999 FEW046 20/12 Q1009 RMK R09/VRB03KT ARP/19003KT 110V270
Conditions at: GCGM (LA GOMERA ARPT , ES) observed 1530 UTC 26 March 2019
Temperature: 20.0°C (68°F)
Dewpoint: 12.0°C (54°F) [RH = 60%]
Pressure (altimeter): 29.79 inches Hg (1009.0 mb)
Winds: from the SW (220 degrees) at 6 MPH (5 knots; 2.6 m/s)
Visibility: 6 or more miles (10+ km)
Ceiling: at least 12,000 feet AGL
Clouds: few clouds at 4600 feet AGL
Weather: no significant weather observed at this time

Forecast for: GCGM (LA GOMERA ARPT , ES)
Text: TAF GCGM 261400Z 2615/2715 12005KT 9999 FEW030 TX21/2714Z TN16/2706Z
Forecast period: 1500 UTC 26 March 2019 to 1500 UTC 27 March 2019
Forecast type: FROM: standard forecast or significant change
Winds: from the ESE (120 degrees) at 6 MPH (5 knots; 2.6 m/s)
Visibility: 6 or more miles 10+ km)
Ceiling: at least 12,000 feet AGL
Clouds: few clouds at 3000 feet AGL
Weather: no significant weather forecast for this period

 AIRPORT MAP

 RUNWAY INFORMATION
Runway 09 Runway length 4921 ft Runway width 98 ft
Runway elevation 716 ft Runway displaced threshold 0 ft Runway heading 81
Runway 27 Runway length 4921 ft Runway width 98 ft
Runway elevation 712 ft Runway displaced threshold 0 ft Runway heading 261

 AIRPORT FREQUENCIES
Type GND Name GND Frequency 121.7 MHZ
Type TWR Name TWR Frequency 118.4 MHZ

 AIRPORT NEAR NAVIGATION AIDS
Type VOR-DME Name La Gomera Frequency 116000 KHZ



Powered by Virtual Airlines Manager [v2.6.2]